Time;durP1;ratioP1;P1;durP2;ratioP2;P2;SDS_P1;SDS_P2;PMS_P1;PMS_P2;Temp;Humidity;BMP_temperature;BMP_pressure;BME280_temperature;BME280_humidity;BME280_pressure;Samples;Min_cycle;Max_cycle;Signal;HPM_P1;HPM_P2
2024/01/29 00:00:53;;;;;;;7.65;2.75;;;4.80;99.90;;;;;;5016548;28;20052;-74
2024/01/29 00:03:19;;;;;;;2.55;1.10;;;4.70;99.90;;;;;;5001297;28;20045;-73
2024/01/29 00:05:45;;;;;;;2.42;1.45;;;4.70;99.90;;;;;;5026286;28;20104;-73
2024/01/29 00:08:11;;;;;;;4.35;2.03;;;4.70;99.90;;;;;;5022717;28;20049;-73
2024/01/29 00:10:37;;;;;;;3.88;1.85;;;4.70;99.90;;;;;;5000164;28;20145;-74
2024/01/29 00:13:03;;;;;;;3.50;1.60;;;4.60;99.90;;;;;;5003230;28;20558;-74
2024/01/29 00:15:29;;;;;;;2.42;1.70;;;4.60;99.90;;;;;;5022531;28;20050;-74
2024/01/29 00:17:54;;;;;;;3.92;1.75;;;4.60;99.90;;;;;;4999874;28;20114;-74
2024/01/29 00:20:20;;;;;;;4.45;2.67;;;4.50;99.90;;;;;;5007523;28;23946;-73
2024/01/29 00:22:46;;;;;;;3.78;1.80;;;4.60;99.90;;;;;;5008481;28;20096;-74
2024/01/29 00:25:12;;;;;;;8.07;1.83;;;4.60;99.90;;;;;;5019027;28;20048;-74
2024/01/29 00:27:38;;;;;;;6.22;1.83;;;4.50;99.90;;;;;;5005844;28;20044;-74
2024/01/29 00:30:06;;;;;;;2.13;1.45;;;4.40;99.90;;;;;;5010874;28;20061;-74
2024/01/29 00:32:31;;;;;;;2.10;1.17;;;4.40;99.90;;;;;;5008482;28;20096;-75
2024/01/29 00:34:57;;;;;;;3.42;1.98;;;4.40;99.90;;;;;;5000601;28;20440;-74
2024/01/29 00:37:23;;;;;;;1.90;1.60;;;4.40;99.90;;;;;;5003627;28;20049;-74
2024/01/29 00:39:50;;;;;;;2.72;2.08;;;4.40;99.90;;;;;;5003722;28;20054;-74
2024/01/29 00:42:15;;;;;;;4.78;1.77;;;4.40;99.90;;;;;;5026206;28;20124;-74
2024/01/29 00:44:42;;;;;;;2.55;1.27;;;4.40;99.90;;;;;;4997686;28;20122;-74
2024/01/29 00:47:09;;;;;;;2.35;1.08;;;4.30;99.90;;;;;;4988454;28;20034;-74
2024/01/29 00:49:35;;;;;;;2.25;1.15;;;4.30;99.90;;;;;;5008503;28;20033;-72
2024/01/29 00:52:04;;;;;;;1.95;1.58;;;4.30;99.90;;;;;;5004549;28;20053;-74
2024/01/29 00:54:30;;;;;;;2.83;1.15;;;4.30;99.90;;;;;;4984539;28;20031;-75
2024/01/29 00:56:56;;;;;;;2.42;1.80;;;4.30;99.90;;;;;;5003569;28;20083;-75
2024/01/29 00:59:22;;;;;;;2.60;1.98;;;4.30;99.90;;;;;;5001871;28;20133;-75
2024/01/29 01:01:48;;;;;;;3.67;1.75;;;4.20;99.90;;;;;;5006477;28;20121;-75
2024/01/29 01:04:15;;;;;;;3.25;1.58;;;4.20;99.90;;;;;;5009909;28;20049;-75
2024/01/29 01:06:40;;;;;;;3.63;2.10;;;4.20;99.90;;;;;;4999136;28;20122;-75
2024/01/29 01:09:09;;;;;;;2.30;1.15;;;4.10;99.90;;;;;;5003906;28;20034;-74
2024/01/29 01:11:35;;;;;;;2.00;1.45;;;4.10;99.90;;;;;;4990598;28;20470;-75
2024/01/29 01:14:01;;;;;;;1.85;1.38;;;4.10;99.90;;;;;;4989907;28;20086;-75
2024/01/29 01:16:27;;;;;;;3.28;1.83;;;4.10;99.90;;;;;;5006588;28;20045;-75
2024/01/29 01:18:53;;;;;;;8.30;1.75;;;4.00;99.90;;;;;;5003559;28;20054;-75
2024/01/29 01:21:19;;;;;;;2.40;1.30;;;3.90;99.90;;;;;;5004744;28;20042;-75
2024/01/29 01:23:45;;;;;;;1.70;1.25;;;3.90;99.90;;;;;;5003613;28;20040;-75
2024/01/29 01:26:11;;;;;;;3.15;1.70;;;3.80;99.90;;;;;;5019496;28;20453;-74
2024/01/29 01:28:37;;;;;;;2.45;1.60;;;3.70;99.90;;;;;;5003721;28;20033;-75
2024/01/29 01:31:03;;;;;;;2.50;1.13;;;3.60;99.90;;;;;;5002611;28;20043;-75
2024/01/29 01:33:29;;;;;;;2.55;1.58;;;3.50;99.90;;;;;;5005650;28;20045;-74
2024/01/29 01:35:54;;;;;;;3.10;1.48;;;3.40;99.90;;;;;;5021765;28;20130;-74
2024/01/29 01:38:20;;;;;;;2.08;1.27;;;3.40;99.90;;;;;;4991653;28;20046;-75
2024/01/29 01:40:46;;;;;;;2.10;1.70;;;3.40;99.90;;;;;;5014099;28;20042;-75
2024/01/29 01:43:20;;;;;;;5.32;1.67;;;3.40;99.90;;;;;;5007598;28;20045;-74
2024/01/29 01:46:03;;;;;;;4.40;2.45;;;3.40;99.90;;;;;;5000296;28;20378;-75
2024/01/29 01:48:31;;;;;;;2.63;1.50;;;3.30;99.90;;;;;;5029971;28;20524;-74
2024/01/29 01:50:57;;;;;;;3.30;1.40;;;3.30;99.90;;;;;;5004793;28;20577;-74
2024/01/29 01:53:24;;;;;;;4.38;1.63;;;3.10;99.90;;;;;;5001139;28;20049;-74
2024/01/29 01:55:50;;;;;;;3.60;1.60;;;3.00;99.90;;;;;;5001604;28;20046;-74
2024/01/29 01:58:18;;;;;;;3.25;1.75;;;2.90;99.90;;;;;;5003592;28;20046;-74
2024/01/29 02:00:44;;;;;;;2.60;1.77;;;3.00;99.90;;;;;;5004935;28;20409;-74
2024/01/29 02:03:10;;;;;;;2.60;1.58;;;3.00;99.90;;;;;;5002481;28;20179;-74
2024/01/29 02:05:36;;;;;;;3.22;1.65;;;3.00;99.90;;;;;;5020713;28;20113;-74
2024/01/29 02:08:03;;;;;;;2.80;1.35;;;3.00;99.90;;;;;;4997766;28;20052;-74
2024/01/29 02:10:30;;;;;;;4.18;1.92;;;2.90;99.90;;;;;;5002760;28;20497;-74
2024/01/29 02:12:55;;;;;;;3.88;1.35;;;2.90;99.90;;;;;;5009876;28;20045;-74
2024/01/29 02:15:23;;;;;;;5.60;1.58;;;2.80;99.90;;;;;;5000882;28;20038;-74
2024/01/29 02:17:48;;;;;;;6.00;1.52;;;2.70;99.90;;;;;;5002093;28;20052;-74
2024/01/29 02:20:16;;;;;;;2.53;1.63;;;2.60;99.90;;;;;;5000811;28;20053;-74
2024/01/29 02:22:45;;;;;;;3.63;1.42;;;2.60;99.90;;;;;;5019290;28;20416;-74
2024/01/29 02:25:12;;;;;;;2.00;1.20;;;2.50;99.90;;;;;;5006558;28;20045;-74
2024/01/29 02:27:38;;;;;;;4.03;1.70;;;2.50;99.90;;;;;;5004032;28;20045;-74
2024/01/29 02:30:05;;;;;;;2.53;1.42;;;2.50;99.90;;;;;;5003482;28;20048;-74
2024/01/29 02:32:31;;;;;;;3.08;1.88;;;2.50;99.90;;;;;;5029341;28;20508;-74
2024/01/29 02:34:57;;;;;;;2.85;1.55;;;2.60;99.90;;;;;;5005883;28;20080;-74
2024/01/29 02:37:23;;;;;;;2.45;1.77;;;2.60;99.90;;;;;;5021181;28;20450;-74
2024/01/29 02:39:51;;;;;;;2.05;1.40;;;2.60;99.90;;;;;;5024074;28;20029;-74
2024/01/29 02:42:18;;;;;;;4.30;1.92;;;2.60;99.90;;;;;;5006563;28;20040;-74
2024/01/29 02:44:45;;;;;;;6.30;2.72;;;2.60;99.90;;;;;;5005260;28;20070;-74
2024/01/29 02:47:11;;;;;;;3.83;2.05;;;2.60;99.90;;;;;;5021199;28;20041;-74
2024/01/29 02:49:37;;;;;;;3.47;2.05;;;2.60;99.90;;;;;;5014350;28;20061;-74
2024/01/29 02:52:04;;;;;;;2.05;1.60;;;2.60;99.90;;;;;;5005234;28;20121;-74
2024/01/29 02:54:30;;;;;;;1.63;1.33;;;2.60;99.90;;;;;;5017409;28;20050;-74
2024/01/29 02:56:55;;;;;;;4.32;2.38;;;2.60;99.90;;;;;;5021831;28;20029;-74
2024/01/29 02:59:21;;;;;;;4.45;1.75;;;2.70;99.90;;;;;;5001234;28;20104;-74
2024/01/29 03:01:47;;;;;;;2.75;1.95;;;2.70;99.90;;;;;;5018168;28;20374;-74
2024/01/29 03:04:13;;;;;;;3.15;2.40;;;2.80;99.90;;;;;;5023820;28;20041;-73
2024/01/29 03:06:38;;;;;;;2.45;1.98;;;2.80;99.90;;;;;;5020625;28;20075;-74
2024/01/29 03:09:04;;;;;;;3.05;1.90;;;2.90;99.90;;;;;;5025525;28;20044;-73
2024/01/29 03:11:30;;;;;;;2.45;1.92;;;2.90;99.90;;;;;;5028697;28;20045;-74
2024/01/29 03:13:57;;;;;;;9.95;3.03;;;2.90;99.90;;;;;;5008018;28;20041;-74
2024/01/29 03:16:23;;;;;;;3.90;1.92;;;2.90;99.90;;;;;;5007663;28;20393;-74
2024/01/29 03:18:48;;;;;;;4.57;2.28;;;2.90;99.90;;;;;;5021712;28;20053;-73
2024/01/29 03:21:14;;;;;;;2.20;1.55;;;2.90;99.90;;;;;;5024880;28;20137;-74
2024/01/29 03:23:40;;;;;;;2.70;1.40;;;3.00;99.90;;;;;;5022864;28;20033;-72
2024/01/29 03:26:06;;;;;;;2.40;1.17;;;3.00;99.90;;;;;;5023537;28;20041;-73
2024/01/29 03:28:31;;;;;;;3.88;1.98;;;3.10;99.90;;;;;;4999881;28;20044;-74
2024/01/29 03:30:57;;;;;;;4.40;2.10;;;3.10;99.90;;;;;;5023288;28;20121;-74
2024/01/29 03:33:23;;;;;;;4.30;1.90;;;3.10;99.90;;;;;;5018186;28;20441;-74
2024/01/29 03:35:49;;;;;;;1.40;1.30;;;3.10;99.90;;;;;;5027377;28;20091;-74
2024/01/29 03:38:14;;;;;;;4.13;1.85;;;3.00;99.90;;;;;;5010009;28;20103;-74
2024/01/29 03:40:40;;;;;;;2.53;1.50;;;3.00;99.90;;;;;;5004359;28;20029;-74
2024/01/29 03:43:06;;;;;;;3.20;1.80;;;3.00;99.90;;;;;;5016146;28;20497;-74
2024/01/29 03:45:32;;;;;;;3.05;1.63;;;3.00;99.90;;;;;;5021389;28;20037;-74
2024/01/29 03:47:57;;;;;;;2.33;1.77;;;3.10;99.90;;;;;;5008513;28;20053;-74
2024/01/29 03:50:23;;;;;;;2.55;1.98;;;3.10;99.90;;;;;;5009113;28;20404;-75
2024/01/29 03:52:50;;;;;;;4.38;2.20;;;3.00;99.90;;;;;;5028262;28;20086;-75
2024/01/29 03:55:16;;;;;;;4.05;1.92;;;3.10;99.90;;;;;;5021086;28;20106;-74
2024/01/29 03:57:42;;;;;;;2.80;2.00;;;3.10;99.90;;;;;;5016715;28;20439;-74
2024/01/29 04:00:09;;;;;;;3.20;1.75;;;3.20;99.90;;;;;;5023192;28;20175;-74
2024/01/29 04:02:34;;;;;;;2.97;1.80;;;3.20;99.90;;;;;;5021703;28;20060;-75
2024/01/29 04:05:00;;;;;;;6.63;2.60;;;3.30;99.90;;;;;;5026101;28;20037;-74
2024/01/29 04:07:27;;;;;;;3.03;1.90;;;3.30;99.90;;;;;;5017156;28;20045;-74
2024/01/29 04:09:53;;;;;;;2.88;2.33;;;3.30;99.90;;;;;;5025694;28;20044;-74
2024/01/29 04:12:19;;;;;;;1.60;1.20;;;3.20;99.90;;;;;;5027282;28;20403;-74
2024/01/29 04:14:45;;;;;;;4.97;2.45;;;3.20;99.90;;;;;;5023759;28;20142;-72
2024/01/29 04:17:12;;;;;;;3.08;2.45;;;3.20;99.90;;;;;;5003876;28;20051;-73
2024/01/29 04:19:39;;;;;;;1.38;1.00;;;3.30;99.90;;;;;;5021830;28;20524;-73
2024/01/29 04:22:05;;;;;;;2.85;1.88;;;3.30;99.90;;;;;;4996298;28;20039;-73
2024/01/29 04:24:31;;;;;;;6.28;2.03;;;3.40;99.90;;;;;;5013027;28;20044;-74
2024/01/29 04:26:57;;;;;;;3.10;2.28;;;3.40;99.90;;;;;;5015373;28;20042;-74
2024/01/29 04:29:23;;;;;;;4.22;1.95;;;3.50;99.90;;;;;;5018107;28;20042;-74
2024/01/29 04:31:49;;;;;;;3.95;1.88;;;3.50;99.90;;;;;;5018348;28;20127;-74
2024/01/29 04:34:15;;;;;;;4.70;2.20;;;3.50;99.90;;;;;;5016702;28;20077;-74
2024/01/29 04:36:41;;;;;;;2.33;1.48;;;3.50;99.90;;;;;;4998040;28;20095;-74
2024/01/29 04:39:06;;;;;;;1.90;1.38;;;3.50;99.90;;;;;;5004213;28;20503;-74
2024/01/29 04:41:32;;;;;;;5.68;2.78;;;3.50;99.90;;;;;;5013017;28;20034;-73
2024/01/29 04:43:58;;;;;;;3.08;2.30;;;3.50;99.90;;;;;;5001758;28;20077;-73
2024/01/29 04:46:24;;;;;;;4.43;2.10;;;3.60;99.90;;;;;;5011828;28;20047;-74
2024/01/29 04:48:49;;;;;;;6.70;2.50;;;3.60;99.90;;;;;;5001726;28;20048;-74
2024/01/29 04:51:15;;;;;;;5.05;2.28;;;3.70;99.90;;;;;;5013730;28;20052;-74
2024/01/29 04:53:41;;;;;;;3.50;1.88;;;3.70;99.90;;;;;;5018133;28;20121;-73
2024/01/29 04:56:07;;;;;;;3.88;2.08;;;3.70;99.90;;;;;;5015954;28;23629;-73
2024/01/29 04:58:33;;;;;;;2.83;1.50;;;3.70;99.90;;;;;;5023100;28;20069;-73
2024/01/29 05:01:00;;;;;;;2.92;1.92;;;3.70;99.90;;;;;;5015910;28;20505;-74
2024/01/29 05:03:26;;;;;;;3.83;2.00;;;3.70;99.90;;;;;;5016742;28;20056;-74
2024/01/29 05:05:52;;;;;;;3.78;1.65;;;3.60;99.90;;;;;;5014346;28;20405;-74
2024/01/29 05:08:19;;;;;;;2.58;2.28;;;3.60;99.90;;;;;;5000567;28;20525;-74
2024/01/29 05:10:45;;;;;;;3.45;1.58;;;3.50;99.90;;;;;;5020065;28;20049;-74
2024/01/29 05:13:12;;;;;;;2.80;2.20;;;3.40;99.90;;;;;;5018148;28;20481;-74
2024/01/29 05:15:38;;;;;;;4.05;1.95;;;3.40;99.90;;;;;;5010407;28;20096;-75
2024/01/29 05:18:04;;;;;;;4.10;2.10;;;3.30;99.90;;;;;;5010710;28;20041;-74
2024/01/29 05:20:30;;;;;;;3.75;1.98;;;3.30;99.90;;;;;;5014972;28;20045;-74
2024/01/29 05:22:56;;;;;;;3.15;2.05;;;3.30;99.90;;;;;;5017698;28;20389;-74
2024/01/29 05:25:22;;;;;;;2.88;2.03;;;3.20;99.90;;;;;;5017407;28;20170;-74
2024/01/29 05:27:48;;;;;;;3.67;2.13;;;3.20;99.90;;;;;;5020528;28;20037;-75
2024/01/29 05:30:15;;;;;;;3.33;1.70;;;3.20;99.90;;;;;;5018965;28;20037;-74
2024/01/29 05:32:41;;;;;;;3.78;1.83;;;3.10;99.90;;;;;;5023995;28;20073;-74
2024/01/29 05:35:07;;;;;;;4.32;1.58;;;3.10;99.90;;;;;;5019800;28;20616;-74
2024/01/29 05:37:34;;;;;;;2.17;1.73;;;3.10;99.90;;;;;;5001559;28;20467;-74
2024/01/29 05:40:04;;;;;;;2.47;1.60;;;3.10;99.90;;;;;;5005756;28;20141;-74
2024/01/29 05:42:31;;;;;;;1.92;1.42;;;3.20;99.90;;;;;;5023194;28;20126;-74
2024/01/29 05:44:56;;;;;;;4.68;2.45;;;3.20;99.90;;;;;;5021887;28;20036;-74
2024/01/29 05:47:23;;;;;;;2.60;1.55;;;3.20;99.90;;;;;;5001455;28;20037;-73
2024/01/29 05:49:49;;;;;;;4.75;2.30;;;3.20;99.90;;;;;;5013997;28;20045;-73
2024/01/29 05:52:15;;;;;;;5.10;2.58;;;3.30;99.90;;;;;;5019646;28;20447;-73
2024/01/29 05:54:41;;;;;;;3.15;2.67;;;3.30;99.90;;;;;;5023991;28;20045;-73
2024/01/29 05:57:10;;;;;;;3.33;1.98;;;3.30;99.90;;;;;;5018344;28;20040;-73
2024/01/29 05:59:38;;;;;;;7.47;2.00;;;3.30;99.90;;;;;;5012981;28;20042;-73
2024/01/29 06:02:04;;;;;;;2.45;1.75;;;3.40;99.90;;;;;;5013204;28;20772;-74
2024/01/29 06:04:30;;;;;;;3.33;1.88;;;3.40;99.90;;;;;;5012518;28;20094;-74
2024/01/29 06:06:56;;;;;;;2.95;1.90;;;3.40;99.90;;;;;;5021881;28;20496;-74
2024/01/29 06:09:22;;;;;;;4.88;2.83;;;3.50;99.90;;;;;;5001958;28;20033;-75
2024/01/29 06:11:51;;;;;;;3.95;2.08;;;3.50;99.90;;;;;;5012237;28;20053;-74
2024/01/29 06:14:17;;;;;;;4.70;2.93;;;3.50;99.90;;;;;;5024681;28;20046;-75
2024/01/29 06:16:44;;;;;;;2.90;1.75;;;3.50;99.90;;;;;;5016646;28;20136;-74
2024/01/29 06:19:17;;;;;;;2.20;1.33;;;3.50;99.90;;;;;;5024071;28;20045;-74
2024/01/29 06:21:46;;;;;;;10.43;2.28;;;3.50;99.90;;;;;;5003110;28;21507;-74
2024/01/29 06:24:12;;;;;;;3.53;2.63;;;3.60;99.90;;;;;;5016118;28;20493;-74
2024/01/29 06:26:39;;;;;;;4.78;2.42;;;3.60;99.90;;;;;;5022987;28;20045;-74
2024/01/29 06:29:04;;;;;;;4.57;2.15;;;3.60;99.90;;;;;;4990084;28;20281;-75
2024/01/29 06:31:30;;;;;;;5.60;2.70;;;3.60;99.90;;;;;;4998066;28;20129;-75
2024/01/29 06:33:57;;;;;;;3.95;2.08;;;3.60;99.90;;;;;;5021511;28;20052;-75
2024/01/29 06:36:23;;;;;;;4.97;2.30;;;3.60;99.90;;;;;;5022122;28;20041;-74
2024/01/29 06:38:49;;;;;;;5.15;2.63;;;3.60;99.90;;;;;;5021611;28;20384;-74
2024/01/29 06:41:25;;;;;;;3.33;1.90;;;3.60;99.90;;;;;;5022920;28;20049;-74
2024/01/29 06:43:53;;;;;;;3.47;1.77;;;3.60;99.90;;;;;;5019708;28;20033;-75
2024/01/29 06:46:20;;;;;;;4.22;1.63;;;3.60;99.90;;;;;;5019746;28;20040;-75
2024/01/29 06:48:45;;;;;;;3.50;2.03;;;3.60;99.90;;;;;;5021843;28;20080;-80
2024/01/29 06:51:12;;;;;;;4.35;2.05;;;3.50;99.90;;;;;;5023406;28;20046;-75
2024/01/29 06:53:38;;;;;;;3.45;2.13;;;3.50;99.90;;;;;;5012632;28;20545;-75
2024/01/29 06:56:04;;;;;;;5.75;2.15;;;3.60;99.90;;;;;;4998162;28;20037;-75
2024/01/29 06:58:40;;;;;;;6.28;1.73;;;3.50;99.90;;;;;;5022984;28;20033;-75
2024/01/29 07:01:06;;;;;;;5.13;1.75;;;3.50;99.90;;;;;;5024775;28;20048;-75
2024/01/29 07:03:33;;;;;;;2.58;2.20;;;3.50;99.90;;;;;;5024223;28;20033;-75
2024/01/29 07:05:58;;;;;;;13.18;2.90;;;3.60;99.90;;;;;;5012817;28;20029;-75
2024/01/29 07:08:25;;;;;;;3.58;2.47;;;3.60;99.90;;;;;;5021060;28;20049;-76
2024/01/29 07:10:51;;;;;;;3.60;2.45;;;3.50;99.90;;;;;;5000965;28;20119;-75
2024/01/29 07:13:16;;;;;;;1.98;1.33;;;3.50;99.90;;;;;;5021886;28;20140;-75
2024/01/29 07:15:42;;;;;;;4.40;2.55;;;3.50;99.90;;;;;;5008269;28;20074;-74
2024/01/29 07:18:08;;;;;;;7.18;1.80;;;3.50;99.90;;;;;;5023977;28;20134;-75
2024/01/29 07:20:39;;;;;;;2.53;1.70;;;3.50;99.90;;;;;;5017832;28;20068;-74
2024/01/29 07:23:06;;;;;;;6.93;2.80;;;3.50;99.90;;;;;;5011986;28;20566;-75
2024/01/29 07:25:31;;;;;;;5.47;2.03;;;3.50;99.90;;;;;;5021151;28;20033;-74
2024/01/29 07:28:00;;;;;;;3.45;2.40;;;3.50;99.90;;;;;;5015402;28;20048;-74
2024/01/29 07:30:26;;;;;;;3.17;2.08;;;3.50;99.90;;;;;;5016200;28;20116;-75
2024/01/29 07:32:52;;;;;;;5.32;2.30;;;3.50;99.90;;;;;;5023758;28;20179;-74
2024/01/29 07:35:17;;;;;;;5.00;2.53;;;3.50;99.90;;;;;;5019838;28;20545;-74
2024/01/29 07:37:43;;;;;;;5.80;2.40;;;3.50;99.90;;;;;;5017976;28;20171;-75
2024/01/29 07:40:09;;;;;;;3.60;1.90;;;3.60;99.90;;;;;;5019037;28;20091;-75
2024/01/29 07:42:36;;;;;;;2.85;1.60;;;3.60;99.90;;;;;;5015069;28;20037;-74
2024/01/29 07:45:02;;;;;;;5.28;2.70;;;3.60;99.90;;;;;;5003078;28;20037;-75
2024/01/29 07:47:27;;;;;;;4.00;2.42;;;3.60;99.90;;;;;;5026550;28;20048;-75
2024/01/29 07:49:54;;;;;;;2.40;2.10;;;3.60;99.90;;;;;;5020101;28;20042;-75
2024/01/29 07:52:20;;;;;;;5.70;2.50;;;3.70;99.90;;;;;;5019215;28;20454;-75
2024/01/29 07:54:46;;;;;;;5.30;2.42;;;3.70;99.90;;;;;;5019114;28;20120;-75
2024/01/29 07:57:11;;;;;;;9.80;2.55;;;3.70;99.90;;;;;;5010198;28;20045;-75
2024/01/29 07:59:37;;;;;;;3.38;2.00;;;3.70;99.90;;;;;;5037320;28;20107;-75
2024/01/29 08:02:03;;;;;;;6.80;2.33;;;3.80;99.90;;;;;;5024763;28;20037;-74
2024/01/29 08:04:29;;;;;;;4.00;3.13;;;3.80;99.90;;;;;;5020873;28;20127;-75
2024/01/29 08:06:55;;;;;;;2.72;1.63;;;3.90;99.90;;;;;;5013619;28;20029;-75
2024/01/29 08:09:21;;;;;;;3.75;2.15;;;3.90;99.90;;;;;;5020969;28;20045;-74
2024/01/29 08:11:47;;;;;;;4.03;2.13;;;3.90;99.90;;;;;;5015131;28;20040;-74
2024/01/29 08:14:12;;;;;;;2.92;2.17;;;4.00;99.90;;;;;;5022148;28;20042;-75
2024/01/29 08:16:39;;;;;;;4.15;2.50;;;4.00;99.90;;;;;;5019752;28;20103;-74
2024/01/29 08:19:05;;;;;;;3.20;2.25;;;4.10;99.90;;;;;;5018420;28;20164;-75
2024/01/29 08:21:31;;;;;;;5.93;2.45;;;4.10;99.90;;;;;;5017964;28;20052;-74
2024/01/29 08:23:57;;;;;;;7.82;2.88;;;4.20;99.90;;;;;;4998717;28;20037;-75
2024/01/29 08:26:23;;;;;;;4.05;2.33;;;4.30;99.90;;;;;;5033842;28;20057;-75
2024/01/29 08:28:48;;;;;;;3.22;2.85;;;4.30;99.90;;;;;;5018259;28;20034;-74
2024/01/29 08:31:14;;;;;;;6.47;2.53;;;4.40;99.90;;;;;;5017417;28;20057;-74
2024/01/29 08:33:42;;;;;;;5.70;3.03;;;4.50;99.90;;;;;;5017040;28;20048;-75
2024/01/29 08:36:08;;;;;;;5.30;3.17;;;4.60;99.90;;;;;;5003163;28;20048;-75
2024/01/29 08:38:34;;;;;;;6.75;3.05;;;4.70;99.90;;;;;;5018723;28;20033;-75
2024/01/29 08:41:00;;;;;;;7.22;3.15;;;4.70;99.90;;;;;;4996534;28;20051;-75
2024/01/29 08:43:26;;;;;;;6.80;3.50;;;4.80;99.90;;;;;;5003621;28;20512;-75
2024/01/29 08:45:51;;;;;;;4.75;2.75;;;4.80;99.90;;;;;;5004696;28;20041;-75
2024/01/29 08:48:17;;;;;;;5.25;3.08;;;4.90;99.90;;;;;;5012194;28;20079;-75
2024/01/29 08:50:43;;;;;;;10.32;3.55;;;5.00;99.90;;;;;;5023521;28;20481;-75
2024/01/29 08:53:09;;;;;;;5.28;2.67;;;5.00;99.90;;;;;;5010342;28;20405;-75
2024/01/29 08:55:34;;;;;;;9.18;2.75;;;5.10;99.90;;;;;;5025324;28;20101;-75
2024/01/29 08:58:00;;;;;;;5.03;3.38;;;5.20;99.90;;;;;;5014418;28;20041;-75
2024/01/29 09:00:26;;;;;;;5.18;3.28;;;5.30;99.90;;;;;;5007297;28;20056;-75
2024/01/29 09:02:52;;;;;;;5.82;3.63;;;5.40;99.90;;;;;;5021559;28;20025;-75
2024/01/29 09:05:18;;;;;;;8.95;4.00;;;5.50;99.90;;;;;;5016647;28;20037;-75
2024/01/29 09:07:44;;;;;;;10.02;4.63;;;5.70;99.90;;;;;;5030533;28;20048;-75
2024/01/29 09:10:10;;;;;;;11.40;3.92;;;5.70;99.90;;;;;;5022330;28;20049;-76
2024/01/29 09:12:36;;;;;;;9.30;3.75;;;5.80;99.90;;;;;;5026342;28;20049;-75
2024/01/29 09:15:04;;;;;;;15.75;4.38;;;6.00;99.90;;;;;;5019855;28;20099;-75
2024/01/29 09:17:31;;;;;;;8.85;4.95;;;6.20;99.90;;;;;;5020990;28;20437;-76
2024/01/29 09:19:57;;;;;;;9.57;4.88;;;6.30;99.90;;;;;;5013866;28;20053;-76
2024/01/29 09:22:23;;;;;;;7.95;4.95;;;6.50;99.90;;;;;;5001500;28;20502;-76
2024/01/29 09:24:49;;;;;;;10.77;5.57;;;6.70;99.90;;;;;;5019494;28;20069;-76
2024/01/29 09:27:15;;;;;;;8.50;4.20;;;6.90;99.90;;;;;;5004674;28;20374;-75
2024/01/29 09:29:41;;;;;;;9.50;4.95;;;7.00;99.90;;;;;;5002682;28;20045;-75
2024/01/29 09:32:08;;;;;;;10.88;5.65;;;7.00;99.90;;;;;;5009351;28;20043;-76
2024/01/29 09:34:34;;;;;;;13.23;7.28;;;7.10;99.90;;;;;;5003498;28;20044;-76
2024/01/29 09:37:00;;;;;;;14.63;5.50;;;7.20;99.90;;;;;;5003455;28;20037;-74
2024/01/29 09:39:26;;;;;;;16.67;6.97;;;7.30;99.90;;;;;;5005025;28;20511;-76
2024/01/29 09:42:04;;;;;;;12.02;5.90;;;7.30;99.90;;;;;;5004504;28;20048;-76
2024/01/29 09:44:40;;;;;;;12.52;6.85;;;7.30;99.90;;;;;;5009653;28;20033;-75
2024/01/29 09:47:06;;;;;;;17.92;8.32;;;7.40;99.90;;;;;;5001097;28;20549;-76
2024/01/29 09:49:36;;;;;;;20.30;8.20;;;7.50;99.90;;;;;;5003963;28;20041;-76
2024/01/29 09:52:04;;;;;;;14.30;6.45;;;7.60;99.90;;;;;;5004598;28;20083;-76
2024/01/29 09:54:32;;;;;;;15.77;6.43;;;7.80;99.90;;;;;;5019865;28;20041;-76
2024/01/29 09:56:58;;;;;;;13.38;7.35;;;8.00;99.90;;;;;;5009244;28;20081;-75
2024/01/29 09:59:23;;;;;;;15.30;5.88;;;8.20;99.90;;;;;;5006631;28;20092;-76
2024/01/29 10:01:49;;;;;;;14.38;6.47;;;8.50;99.90;;;;;;5005719;28;20036;-76
2024/01/29 10:04:15;;;;;;;15.85;6.07;;;8.90;99.90;;;;;;5006841;28;20072;-76
2024/01/29 10:06:41;;;;;;;15.10;6.32;;;9.50;99.90;;;;;;5005406;28;20132;-76
2024/01/29 10:09:08;;;;;;;14.52;6.30;;;10.10;99.90;;;;;;5004316;28;20141;-76
2024/01/29 10:11:36;;;;;;;12.90;5.93;;;10.40;99.90;;;;;;5006238;28;20043;-76
2024/01/29 10:14:02;;;;;;;14.07;5.40;;;10.60;99.90;;;;;;5003832;28;20128;-77
2024/01/29 10:16:28;;;;;;;10.23;4.90;;;10.70;99.90;;;;;;5021538;28;20508;-76
2024/01/29 10:18:58;;;;;;;15.65;5.65;;;10.90;99.90;;;;;;4987273;28;20056;-76
2024/01/29 10:21:24;;;;;;;12.80;6.53;;;10.90;99.90;;;;;;5001690;28;20383;-76
2024/01/29 10:23:56;;;;;;;16.75;7.35;;;10.90;99.90;;;;;;5004954;28;20045;-76
2024/01/29 10:26:23;;;;;;;11.25;5.97;;;10.90;99.90;;;;;;5002669;28;20605;-75
2024/01/29 10:29:03;;;;;;;17.38;6.10;;;10.70;99.90;;;;;;5001637;28;20171;-76
2024/01/29 10:31:29;;;;;;;;;;;10.30;99.90;;;;;;5004964;28;20092;-76
2024/01/29 10:33:55;;;;;;;15.85;7.65;;;9.80;99.90;;;;;;5018246;28;20400;-76
2024/01/29 10:36:22;;;;;;;20.67;9.30;;;9.20;99.90;;;;;;5002914;28;20520;-76
2024/01/29 10:38:48;;;;;;;18.63;7.40;;;8.80;99.90;;;;;;5000269;28;20061;-76
2024/01/29 10:41:17;;;;;;;21.00;10.05;;;8.50;99.90;;;;;;5002766;28;20088;-76
2024/01/29 10:43:52;;;;;;;19.10;7.00;;;8.20;99.90;;;;;;4986612;28;20112;-75
2024/01/29 10:46:20;;;;;;;20.63;9.35;;;8.00;99.90;;;;;;5001734;28;20049;-76
2024/01/29 10:48:46;;;;;;;20.98;9.93;;;7.90;99.90;;;;;;5002438;28;20414;-75
2024/01/29 10:51:13;;;;;;;26.77;9.10;;;7.70;99.90;;;;;;5004017;28;20056;-76
2024/01/29 10:53:41;;;;;;;25.38;9.27;;;7.70;99.90;;;;;;5001914;28;20045;-76
2024/01/29 10:56:08;;;;;;;18.40;8.43;;;7.60;99.90;;;;;;5001645;28;20053;-76
2024/01/29 10:58:36;;;;;;;14.70;7.80;;;7.60;99.90;;;;;;5004160;28;20046;-76
2024/01/29 11:01:03;;;;;;;17.90;7.68;;;7.60;99.90;;;;;;5002401;28;20041;-76
2024/01/29 11:03:30;;;;;;;16.30;7.82;;;7.60;99.90;;;;;;5001403;28;20041;-76
2024/01/29 11:06:23;;;;;;;12.50;5.55;;;7.60;99.90;;;;;;4999632;28;20111;-76
2024/01/29 11:08:55;;;;;;;13.75;5.65;;;7.70;99.90;;;;;;5002337;28;20049;-76
2024/01/29 11:11:23;;;;;;;11.60;3.92;;;7.70;99.90;;;;;;5001486;28;20124;-75
2024/01/29 11:13:50;;;;;;;10.52;5.20;;;7.80;99.90;;;;;;5003808;28;20498;-76
2024/01/29 11:16:16;;;;;;;11.60;5.00;;;7.80;99.90;;;;;;5000637;28;20050;-76
2024/01/29 11:18:42;;;;;;;8.45;4.53;;;7.80;99.90;;;;;;5001211;28;20050;-76
2024/01/29 11:21:14;;;;;;;10.65;5.55;;;7.70;99.90;;;;;;4987154;28;20227;-75
2024/01/29 11:23:47;;;;;;;8.57;4.75;;;7.70;99.90;;;;;;5004016;28;20164;-75
2024/01/29 11:26:18;;;;;;;11.68;5.00;;;7.70;99.90;;;;;;5006967;28;20088;-76
2024/01/29 11:28:44;;;;;;;10.30;5.10;;;7.70;99.90;;;;;;5004899;28;20084;-76
2024/01/29 11:31:14;;;;;;;10.13;5.28;;;7.70;99.90;;;;;;5007152;28;20204;-76
2024/01/29 11:33:39;;;;;;;18.33;5.43;;;7.70;99.90;;;;;;4988000;28;20404;-76
2024/01/29 11:36:12;;;;;;;9.85;4.22;;;7.70;99.90;;;;;;4988367;28;20129;-76
2024/01/29 11:38:38;;;;;;;9.80;5.05;;;7.80;99.90;;;;;;5005468;28;20430;-76
2024/01/29 11:41:04;;;;;;;9.98;4.20;;;7.80;99.90;;;;;;5004826;28;20049;-76
2024/01/29 11:43:31;;;;;;;11.63;4.47;;;7.90;99.90;;;;;;5004341;28;20054;-76
2024/01/29 11:45:58;;;;;;;11.50;5.15;;;7.90;99.90;;;;;;4999028;28;20124;-76
2024/01/29 11:48:24;;;;;;;10.85;4.68;;;7.90;99.90;;;;;;4987486;28;20088;-76
2024/01/29 11:50:52;;;;;;;12.23;5.28;;;7.90;99.90;;;;;;5006229;28;20056;-76
2024/01/29 11:53:20;;;;;;;16.35;6.32;;;8.00;99.90;;;;;;5007020;28;20669;-76
2024/01/29 11:55:48;;;;;;;20.25;6.90;;;8.00;99.90;;;;;;5002728;28;20104;-76
2024/01/29 11:58:32;;;;;;;13.63;7.45;;;8.00;99.90;;;;;;5006451;28;20398;-76
2024/01/29 12:00:58;;;;;;;18.23;9.50;;;8.10;99.90;;;;;;5016767;28;20042;-76
2024/01/29 12:03:34;;;;;;;20.15;8.18;;;8.10;99.90;;;;;;5000571;28;20037;-76
2024/01/29 12:06:00;;;;;;;18.45;7.93;;;8.20;99.90;;;;;;5007313;28;20046;-76
2024/01/29 12:08:30;;;;;;;17.33;7.35;;;8.20;99.90;;;;;;5002966;28;20042;-76
2024/01/29 12:11:01;;;;;;;16.75;7.05;;;8.20;99.90;;;;;;5000403;28;20046;-76
2024/01/29 12:13:27;;;;;;;11.27;6.05;;;8.30;99.90;;;;;;5007193;28;20070;-76
2024/01/29 12:15:55;;;;;;;17.10;6.95;;;8.30;99.90;;;;;;5006960;28;20049;-76
2024/01/29 12:18:25;;;;;;;22.52;7.60;;;8.40;99.90;;;;;;4984188;28;20077;-76
2024/01/29 12:20:53;;;;;;;20.15;6.50;;;8.40;99.90;;;;;;5001062;28;20050;-76
2024/01/29 12:23:22;;;;;;;21.10;8.50;;;8.50;99.90;;;;;;5004051;28;20046;-76
2024/01/29 12:25:56;;;;;;;18.58;7.72;;;8.50;99.90;;;;;;5002322;28;20050;-76
2024/01/29 12:28:25;;;;;;;15.60;7.05;;;8.50;99.90;;;;;;5007275;28;20049;-76
2024/01/29 12:31:00;;;;;;;15.85;6.40;;;8.60;99.90;;;;;;5002959;28;20061;-76
2024/01/29 12:33:29;;;;;;;14.43;6.40;;;8.60;99.90;;;;;;5007696;28;20117;-76
2024/01/29 12:35:57;;;;;;;17.42;7.25;;;8.60;99.90;;;;;;5002043;28;20050;-76
2024/01/29 12:38:23;;;;;;;14.13;6.68;;;8.60;99.90;;;;;;4985484;28;20657;-76
2024/01/29 12:40:55;;;;;;;13.23;6.53;;;8.60;99.90;;;;;;5000772;28;20104;-76
2024/01/29 12:43:28;;;;;;;9.60;5.28;;;8.60;99.90;;;;;;5008714;28;20042;-76
2024/01/29 12:46:04;;;;;;;12.30;6.93;;;8.60;99.90;;;;;;5007067;28;20172;-76
2024/01/29 12:48:30;;;;;;;12.32;5.30;;;8.60;99.90;;;;;;5008302;28;20049;-76
2024/01/29 12:50:56;;;;;;;9.35;4.72;;;8.70;99.90;;;;;;4999761;28;20103;-76
2024/01/29 12:53:22;;;;;;;12.45;4.80;;;8.80;99.90;;;;;;5002379;28;20386;-76